createdAt,value
2023-01-23T00:00:50.343Z,23.60
2023-01-23T00:04:50.389Z,23.93
2023-01-23T00:08:50.912Z,22.17
2023-01-23T00:12:53.420Z,21.07
2023-01-23T00:16:56.480Z,21.93
2023-01-23T00:20:56.592Z,25.30
2023-01-23T00:24:56.705Z,24.07
2023-01-23T00:28:58.003Z,23.33
2023-01-23T00:33:00.620Z,22.83
2023-01-23T00:37:00.634Z,22.97
2023-01-23T00:41:00.718Z,26.50
2023-01-23T00:45:00.813Z,22.23
2023-01-23T00:49:03.534Z,24.87
2023-01-23T00:53:03.664Z,24.67
2023-01-23T00:57:03.860Z,26.73
2023-01-23T01:01:03.981Z,21.83
2023-01-23T01:05:09.197Z,22.40
2023-01-23T01:09:09.329Z,22.50
2023-01-23T01:13:13.318Z,24.93
2023-01-23T01:17:13.644Z,29.97
2023-01-23T01:21:21.656Z,24.73
2023-01-23T01:25:22.712Z,22.93
2023-01-23T01:29:22.890Z,25.67
2023-01-23T01:33:24.331Z,24.40
2023-01-23T01:37:28.023Z,26.70
2023-01-23T01:41:28.167Z,26.67
2023-01-23T01:46:12.320Z,26.97
2023-01-23T01:50:13.750Z,31.93
2023-01-23T01:54:28.400Z,26.03
2023-01-23T01:58:30.411Z,31.13
2023-01-23T02:02:36.063Z,26.77
2023-01-23T02:06:36.249Z,27.53
2023-01-23T02:10:40.402Z,26.73
2023-01-23T02:14:40.710Z,25.23
2023-01-23T02:18:46.351Z,24.07
2023-01-23T02:22:58.226Z,23.60
2023-01-23T02:27:00.935Z,22.67
2023-01-23T02:31:01.260Z,23.03
2023-01-23T02:35:08.185Z,23.43
2023-01-23T02:39:14.429Z,25.67
2023-01-23T02:43:22.801Z,22.93
2023-01-23T02:47:29.863Z,21.27
2023-01-23T02:51:31.435Z,23.20
2023-01-23T02:55:33.304Z,25.30
2023-01-23T02:59:48.560Z,24.37
2023-01-23T03:03:51.496Z,27.93
2023-01-23T03:07:51.509Z,25.03
2023-01-23T03:11:52.307Z,24.83
2023-01-23T03:15:56.454Z,28.70
2023-01-23T03:19:57.876Z,24.30
2023-01-23T03:23:58.843Z,26.47
2023-01-23T03:27:58.948Z,22.80
2023-01-23T03:32:01.796Z,22.17
2023-01-23T03:36:01.909Z,20.90
2023-01-23T03:40:26.230Z,22.43
2023-01-23T03:44:27.482Z,22.63
2023-01-23T03:48:30.218Z,24.07
2023-01-23T03:52:30.774Z,26.43
2023-01-23T03:56:31.332Z,22.07
2023-01-23T04:00:31.604Z,21.87
2023-01-23T04:04:39.615Z,26.30
2023-01-23T04:08:41.591Z,21.63
2023-01-23T04:12:45.588Z,23.83
2023-01-23T04:16:46.434Z,22.33
2023-01-23T04:20:49.148Z,23.43
2023-01-23T04:24:49.320Z,24.17
2023-01-23T04:28:49.766Z,27.67
2023-01-23T04:32:49.966Z,22.23
2023-01-23T04:36:54.669Z,26.33
2023-01-23T04:40:55.616Z,24.43
2023-01-23T04:44:55.708Z,24.67
2023-01-23T04:49:14.201Z,26.33
2023-01-23T04:53:17.332Z,25.23
2023-01-23T04:57:18.408Z,21.47
2023-01-23T05:01:23.376Z,22.77
2023-01-23T05:05:28.241Z,23.73
2023-01-23T05:09:35.098Z,22.67
2023-01-23T05:13:36.857Z,23.00
2023-01-23T05:17:37.001Z,24.37
2023-01-23T05:21:37.246Z,24.37
2023-01-23T05:25:39.958Z,23.97
2023-01-23T05:29:40.405Z,23.23
2023-01-23T05:33:51.525Z,34.33
2023-01-23T05:37:53.242Z,22.83
2023-01-23T05:41:59.228Z,23.27
2023-01-23T05:46:17.996Z,20.00
2023-01-23T05:50:24.887Z,20.57
2023-01-23T05:54:26.275Z,21.67
2023-01-23T05:58:29.184Z,20.87
2023-01-23T06:02:50.166Z,21.57
2023-01-23T06:07:10.885Z,22.53
2023-01-23T06:11:11.002Z,20.70
2023-01-23T06:15:14.765Z,25.73
2023-01-23T06:19:15.883Z,38.80
2023-01-23T06:23:16.141Z,22.43
2023-01-23T06:27:16.224Z,21.20
2023-01-23T06:31:19.091Z,22.60
2023-01-23T06:35:26.668Z,20.57
2023-01-23T06:39:30.230Z,22.43
2023-01-23T06:43:31.278Z,26.57
2023-01-23T06:47:35.137Z,23.73
2023-01-23T06:51:36.433Z,22.80
2023-01-23T06:55:39.345Z,23.47
2023-01-23T06:59:40.305Z,22.20
2023-01-23T07:03:47.025Z,21.47
2023-01-23T07:07:47.229Z,23.50
2023-01-23T07:11:47.419Z,23.93
2023-01-23T07:15:50.231Z,24.87
2023-01-23T07:19:53.568Z,25.63
2023-01-23T07:23:53.747Z,24.63
2023-01-23T07:27:54.313Z,24.57
2023-01-23T07:31:54.428Z,23.40
2023-01-23T07:35:57.496Z,22.77
2023-01-23T07:39:57.580Z,24.60
2023-01-23T07:43:57.657Z,28.90
2023-01-23T07:47:57.660Z,29.07
2023-01-23T07:52:00.325Z,26.37
2023-01-23T07:56:02.360Z,26.63
2023-01-23T08:00:02.682Z,23.63
2023-01-23T08:04:12.517Z,22.83
2023-01-23T08:08:15.426Z,21.23
2023-01-23T08:12:15.944Z,22.27
2023-01-23T08:16:16.084Z,21.30
2023-01-23T08:20:16.350Z,19.67
2023-01-23T08:24:19.449Z,21.97
2023-01-23T08:28:19.526Z,22.63
2023-01-23T08:32:28.288Z,22.53
2023-01-23T08:36:31.391Z,23.50
2023-01-23T08:40:35.244Z,21.63
2023-01-23T08:44:35.367Z,21.30
2023-01-23T08:48:36.067Z,23.23
2023-01-23T08:52:36.659Z,20.13
2023-01-23T08:56:41.017Z,19.97
2023-01-23T09:00:41.111Z,20.60
2023-01-23T09:04:41.525Z,21.73
2023-01-23T09:08:42.610Z,18.97
2023-01-23T09:12:45.425Z,17.37
2023-01-23T09:16:45.518Z,17.63
2023-01-23T09:20:45.611Z,18.60
2023-01-23T09:24:45.792Z,21.17
2023-01-23T09:28:48.840Z,19.53
2023-01-23T09:32:48.893Z,16.07
2023-01-23T09:36:49.216Z,18.47
2023-01-23T09:40:53.478Z,21.77
2023-01-23T09:45:04.686Z,17.87
2023-01-23T09:49:14.359Z,17.23
2023-01-23T09:53:20.214Z,24.20
2023-01-23T09:57:27.622Z,16.67
2023-01-23T10:01:34.184Z,15.27
2023-01-23T10:05:46.461Z,15.23
2023-01-23T10:10:18.129Z,14.37
2023-01-23T10:14:49.278Z,16.00
2023-01-23T10:19:12.105Z,17.77
2023-01-23T10:23:42.102Z,14.70
2023-01-23T10:27:47.991Z,15.57
2023-01-23T10:31:57.687Z,13.90
2023-01-23T10:36:11.037Z,14.80
2023-01-23T10:40:17.321Z,14.20
2023-01-23T10:44:20.798Z,14.87
2023-01-23T10:48:45.322Z,16.77
2023-01-23T10:52:49.408Z,14.53
2023-01-23T10:57:01.692Z,15.60
2023-01-23T11:01:02.361Z,12.50
2023-01-23T11:05:03.887Z,12.63
2023-01-23T11:09:07.356Z,14.03
2023-01-23T11:13:07.700Z,14.47
2023-01-23T11:17:25.465Z,13.17
2023-01-23T11:21:30.346Z,19.13
2023-01-23T11:25:38.549Z,12.00
2023-01-23T11:30:04.972Z,14.77
2023-01-23T11:34:15.092Z,13.10
2023-01-23T11:38:30.488Z,10.63
2023-01-23T11:42:47.028Z,13.73
2023-01-23T11:47:37.746Z,11.73
2023-01-23T11:51:43.821Z,11.07
2023-01-23T11:56:12.236Z,10.83
2023-01-23T12:00:32.050Z,10.03
2023-01-23T12:04:54.327Z,10.50
2023-01-23T12:09:08.279Z,8.47
2023-01-23T12:13:26.968Z,10.67
2023-01-23T12:17:43.848Z,9.40
2023-01-23T12:21:55.931Z,8.90
2023-01-23T12:26:09.666Z,9.60
2023-01-23T12:30:56.522Z,9.77
2023-01-23T12:35:20.484Z,9.97
2023-01-23T12:39:46.664Z,9.00
2023-01-23T12:43:57.433Z,8.97
2023-01-23T12:48:09.820Z,8.03
2023-01-23T12:52:43.547Z,8.37
2023-01-23T12:56:45.250Z,8.73
2023-01-23T13:01:03.046Z,8.73
2023-01-23T13:05:21.739Z,9.90
2023-01-23T13:09:39.177Z,9.93
2023-01-23T13:13:39.856Z,9.03
2023-01-23T13:17:52.339Z,9.13
2023-01-23T13:22:22.265Z,8.87
2023-01-23T13:26:32.704Z,7.33
2023-01-23T13:30:48.117Z,8.10
2023-01-23T13:39:27.854Z,9.43
2023-01-23T13:43:58.538Z,7.67
2023-01-23T14:24:26.485Z,12.43
2023-01-23T14:28:37.572Z,10.97
2023-01-23T14:33:14.335Z,17.83
2023-01-23T14:37:22.752Z,14.63
2023-01-23T14:46:18.039Z,12.70
2023-01-23T14:50:24.404Z,17.30
2023-01-23T14:54:32.567Z,12.10
2023-01-23T14:58:35.273Z,11.30
2023-01-23T15:02:38.716Z,16.47
2023-01-23T15:06:39.482Z,15.70
2023-01-23T15:10:54.159Z,17.13
2023-01-23T15:15:00.857Z,16.20
2023-01-23T15:19:11.391Z,13.93
2023-01-23T15:23:32.317Z,19.23
2023-01-23T15:27:41.093Z,14.10
2023-01-23T15:31:50.188Z,15.80
2023-01-23T15:35:50.984Z,15.57
2023-01-23T15:39:55.397Z,15.07
2023-01-23T15:43:58.000Z,20.23
2023-01-23T15:47:58.083Z,19.67
2023-01-23T15:52:00.226Z,14.60
2023-01-23T15:56:01.623Z,15.90
2023-01-23T16:00:17.323Z,15.57
2023-01-23T16:04:18.502Z,14.93
2023-01-23T16:08:25.407Z,15.27
2023-01-23T16:12:32.877Z,17.70
2023-01-23T16:16:35.593Z,15.27
2023-01-23T16:20:39.546Z,17.07
2023-01-23T16:24:42.536Z,18.27
2023-01-23T16:28:42.621Z,16.50
2023-01-23T16:32:45.445Z,17.97
2023-01-23T16:36:45.689Z,17.80
2023-01-23T16:40:45.811Z,20.57
2023-01-23T16:44:45.902Z,17.67
2023-01-23T16:48:50.642Z,18.30
2023-01-23T16:53:01.786Z,20.10
2023-01-23T16:57:03.956Z,29.93
2023-01-23T17:01:07.884Z,19.27
2023-01-23T17:05:12.257Z,24.97
2023-01-23T17:09:14.234Z,21.73
2023-01-23T17:13:15.947Z,24.83
2023-01-23T17:17:23.225Z,22.10
2023-01-23T17:21:30.664Z,20.67
2023-01-23T17:25:31.902Z,19.00
2023-01-23T17:29:32.246Z,18.70
2023-01-23T17:33:36.466Z,19.37
2023-01-23T17:37:39.453Z,20.30
2023-01-23T17:41:39.658Z,22.67
2023-01-23T17:45:40.091Z,20.67
2023-01-23T17:49:41.372Z,19.20
2023-01-23T17:53:44.396Z,20.03
2023-01-23T17:57:45.101Z,21.10
2023-01-23T18:01:45.382Z,20.17
2023-01-23T18:05:45.446Z,20.37
2023-01-23T18:09:48.216Z,18.07
2023-01-23T18:14:11.122Z,17.90
2023-01-23T18:18:30.602Z,15.93
2023-01-23T18:22:31.587Z,18.63
2023-01-23T18:26:51.049Z,15.70
2023-01-23T18:31:03.025Z,17.20
2023-01-23T18:35:15.820Z,15.30
2023-01-23T18:39:39.989Z,16.87
2023-01-23T18:43:49.513Z,15.77
2023-01-23T18:47:50.615Z,16.40
2023-01-23T18:52:05.152Z,17.77
2023-01-23T18:56:22.558Z,27.73
2023-01-23T19:00:36.134Z,21.33
2023-01-23T19:04:46.232Z,28.53
2023-01-23T19:08:48.479Z,28.57
2023-01-23T19:13:06.348Z,24.60
2023-01-23T19:17:23.924Z,22.67
2023-01-23T19:21:28.423Z,23.33
2023-01-23T19:25:29.335Z,25.60
2023-01-23T19:29:30.216Z,24.07
2023-01-23T19:33:33.077Z,23.67
2023-01-23T19:37:33.125Z,21.40
2023-01-23T19:41:43.346Z,21.33
2023-01-23T19:45:45.505Z,17.43
2023-01-23T19:49:48.295Z,19.57
2023-01-23T19:53:49.394Z,17.77
2023-01-23T19:57:49.487Z,18.00
2023-01-23T20:01:53.702Z,18.07
2023-01-23T20:05:59.595Z,17.67
2023-01-23T20:10:00.167Z,17.70
2023-01-23T20:14:00.379Z,18.50
2023-01-23T20:18:00.431Z,18.07
2023-01-23T20:22:03.100Z,20.03
2023-01-23T20:26:04.657Z,20.00
2023-01-23T20:30:05.348Z,17.57
2023-01-23T20:34:05.694Z,18.53
2023-01-23T20:38:08.332Z,18.47
2023-01-23T20:42:10.708Z,18.43
2023-01-23T20:46:12.402Z,18.80
2023-01-23T20:50:14.509Z,19.03
2023-01-23T20:54:18.009Z,17.77
2023-01-23T20:58:30.541Z,20.00
2023-01-23T21:02:34.079Z,21.47
2023-01-23T21:06:34.482Z,18.37
2023-01-23T21:10:37.335Z,17.40
2023-01-23T21:14:37.718Z,17.63
2023-01-23T21:18:41.402Z,19.63
2023-01-23T21:22:41.454Z,18.20
2023-01-23T21:26:44.494Z,18.57
2023-01-23T21:30:44.798Z,18.57
2023-01-23T21:34:45.104Z,19.00
2023-01-23T21:38:45.502Z,18.53
2023-01-23T21:42:48.127Z,18.43
2023-01-23T21:46:49.283Z,17.77
2023-01-23T21:50:49.304Z,18.93
2023-01-23T21:54:49.331Z,21.40
2023-01-23T21:58:53.398Z,20.47
2023-01-23T22:02:53.683Z,19.50
2023-01-23T22:06:56.715Z,18.47
2023-01-23T22:10:56.804Z,19.70
2023-01-23T22:14:59.453Z,19.20
2023-01-23T22:18:59.523Z,19.97
2023-01-23T22:22:59.568Z,19.60
2023-01-23T22:26:59.885Z,17.40
2023-01-23T22:31:10.990Z,17.20
2023-01-23T22:35:12.278Z,20.37
2023-01-23T22:39:16.295Z,18.93
2023-01-23T22:43:16.338Z,18.87
2023-01-23T22:47:18.961Z,18.40
2023-01-23T22:51:23.663Z,17.20
2023-01-23T22:55:24.595Z,18.73
2023-01-23T22:59:24.702Z,19.83
2023-01-23T23:03:27.663Z,19.17
2023-01-23T23:07:27.862Z,18.03
2023-01-23T23:11:30.783Z,18.20
2023-01-23T23:15:31.481Z,18.10
2023-01-23T23:19:34.709Z,18.73
2023-01-23T23:23:35.219Z,18.80
2023-01-23T23:27:35.296Z,19.03
2023-01-23T23:31:35.633Z,20.70
2023-01-23T23:35:38.588Z,21.83
2023-01-23T23:39:38.693Z,19.73
2023-01-23T23:43:38.914Z,21.57
2023-01-23T23:47:38.904Z,18.50
2023-01-23T23:51:41.530Z,18.27
2023-01-23T23:55:41.627Z,19.40
2023-01-23T23:59:41.726Z,19.07
